Time;durP1;ratioP1;P1;durP2;ratioP2;P2;SDS_P1;SDS_P2;PMS_P1;PMS_P2;Temp;Humidity;BMP_temperature;BMP_pressure;BME280_temperature;BME280_humidity;BME280_pressure;Samples;Min_cycle;Max_cycle;Signal;HPM_P1;HPM_P2
2021/07/16 00:00:07;;;;;;;5.32;2.42;;;;;;;;;;4949784;29;20062;-85
2021/07/16 00:02:52;;;;;;;4.10;2.10;;;;;;;;;;4951260;29;20019;-85
2021/07/16 00:05:37;;;;;;;3.08;2.13;;;;;;;;;;4949494;29;20043;-85
2021/07/16 00:08:23;;;;;;;3.67;1.90;;;;;;;;;;4950716;29;20031;-85
2021/07/16 00:11:08;;;;;;;3.83;1.92;;;;;;;;;;4938001;29;20133;-85
2021/07/16 00:13:53;;;;;;;3.97;2.05;;;;;;;;;;4970634;28;20031;-84
2021/07/16 00:16:38;;;;;;;2.50;2.00;;;;;;;;;;4964234;28;20114;-84
2021/07/16 00:19:24;;;;;;;3.08;2.13;;;;;;;;;;4950954;29;20033;-84
2021/07/16 00:22:09;;;;;;;6.32;2.53;;;;;;;;;;4950705;29;20467;-83
2021/07/16 00:24:54;;;;;;;5.85;2.60;;;;;;;;;;4950633;29;20090;-83
2021/07/16 00:27:39;;;;;;;3.75;2.03;;;;;;;;;;4950584;28;20066;-84
2021/07/16 00:30:24;;;;;;;4.18;2.55;;;;;;;;;;4951299;29;20025;-83
2021/07/16 00:33:12;;;;;;;6.35;2.00;;;;;;;;;;4950560;29;20031;-83
2021/07/16 00:35:57;;;;;;;2.70;2.10;;;;;;;;;;4951054;29;20401;-83
2021/07/16 00:38:44;;;;;;;4.00;2.33;;;;;;;;;;4948557;29;20113;-83
2021/07/16 00:41:29;;;;;;;5.30;2.15;;;;;;;;;;4950330;29;20504;-83
2021/07/16 00:44:17;;;;;;;3.97;2.53;;;;;;;;;;4947335;29;20416;-83
2021/07/16 00:47:04;;;;;;;3.03;2.10;;;;;;;;;;4950402;29;20105;-83
2021/07/16 00:49:49;;;;;;;4.18;2.10;;;;;;;;;;4950534;29;20458;-84
2021/07/16 00:52:34;;;;;;;2.88;2.10;;;;;;;;;;4949961;29;20118;-83
2021/07/16 00:55:20;;;;;;;4.93;2.10;;;;;;;;;;4950571;29;20382;-84
2021/07/16 00:58:05;;;;;;;5.07;2.50;;;;;;;;;;4950476;29;20028;-83
2021/07/16 01:00:50;;;;;;;6.18;2.67;;;;;;;;;;4950950;29;20027;-83
2021/07/16 01:03:36;;;;;;;9.07;3.88;;;;;;;;;;4950242;29;20059;-83
2021/07/16 01:06:21;;;;;;;4.93;2.60;;;;;;;;;;4948260;29;20051;-83
2021/07/16 01:09:06;;;;;;;4.68;2.65;;;;;;;;;;4949933;29;20023;-83
2021/07/16 01:11:52;;;;;;;4.75;2.38;;;;;;;;;;4953197;28;20023;-83
2021/07/16 01:14:37;;;;;;;6.20;2.75;;;;;;;;;;4969338;28;20377;-83
2021/07/16 01:17:23;;;;;;;5.53;2.40;;;;;;;;;;4969109;28;20449;-84
2021/07/16 01:20:10;;;;;;;5.07;2.55;;;;;;;;;;4969675;28;20015;-84
2021/07/16 01:22:57;;;;;;;4.55;2.60;;;;;;;;;;4955736;28;20037;-84
2021/07/16 01:25:42;;;;;;;5.00;2.75;;;;;;;;;;4969442;28;20030;-84
2021/07/16 01:28:27;;;;;;;5.03;2.25;;;;;;;;;;4969317;28;20386;-84
2021/07/16 01:31:12;;;;;;;3.30;2.17;;;;;;;;;;4967432;28;20030;-83
2021/07/16 01:33:58;;;;;;;3.92;2.38;;;;;;;;;;4968994;28;20223;-84
2021/07/16 01:36:43;;;;;;;4.40;2.33;;;;;;;;;;4968827;28;20030;-83
2021/07/16 01:39:29;;;;;;;6.95;2.78;;;;;;;;;;4967077;28;20034;-83
2021/07/16 01:42:14;;;;;;;2.10;1.90;;;;;;;;;;4955823;28;20026;-83
2021/07/16 01:45:00;;;;;;;3.33;2.13;;;;;;;;;;4965405;28;20027;-83
2021/07/16 01:47:47;;;;;;;5.55;2.05;;;;;;;;;;4968886;28;20732;-83
2021/07/16 01:50:34;;;;;;;3.42;1.98;;;;;;;;;;4969004;28;20450;-83
2021/07/16 01:53:19;;;;;;;4.07;2.17;;;;;;;;;;4955380;28;20027;-83
2021/07/16 01:56:04;;;;;;;4.93;2.45;;;;;;;;;;4969231;28;20453;-84
2021/07/16 01:58:50;;;;;;;4.75;2.67;;;;;;;;;;4968431;28;20110;-83
2021/07/16 02:01:36;;;;;;;6.43;2.90;;;;;;;;;;4968798;28;20027;-84
2021/07/16 02:04:21;;;;;;;5.45;2.10;;;;;;;;;;4969036;28;20023;-84
2021/07/16 02:07:06;;;;;;;4.75;2.33;;;;;;;;;;4968096;28;20054;-84
2021/07/16 02:09:51;;;;;;;7.13;2.33;;;;;;;;;;4966927;28;20127;-84
2021/07/16 02:12:37;;;;;;;5.45;2.17;;;;;;;;;;4968824;28;20051;-83
2021/07/16 02:15:23;;;;;;;5.18;2.15;;;;;;;;;;4962395;28;20114;-84
2021/07/16 02:18:09;;;;;;;5.47;2.65;;;;;;;;;;4949309;29;20106;-83
2021/07/16 02:20:54;;;;;;;4.15;2.42;;;;;;;;;;4949586;29;20034;-85
2021/07/16 02:23:39;;;;;;;3.72;2.47;;;;;;;;;;4949322;29;20102;-84
2021/07/16 02:26:24;;;;;;;3.38;2.50;;;;;;;;;;4949505;29;20015;-83
2021/07/16 02:29:09;;;;;;;4.00;2.83;;;;;;;;;;4949587;29;20027;-84
2021/07/16 02:31:55;;;;;;;3.85;3.03;;;;;;;;;;4949068;29;20031;-83
2021/07/16 02:34:40;;;;;;;5.20;2.78;;;;;;;;;;4965379;28;20031;-84
2021/07/16 02:37:25;;;;;;;4.38;2.40;;;;;;;;;;4968677;28;20023;-84
2021/07/16 02:40:11;;;;;;;5.93;2.47;;;;;;;;;;4968220;28;20015;-84
2021/07/16 02:42:56;;;;;;;6.13;2.65;;;;;;;;;;4955274;28;20038;-83
2021/07/16 02:45:43;;;;;;;3.47;2.58;;;;;;;;;;4954738;28;20106;-83
2021/07/16 02:48:28;;;;;;;3.85;2.72;;;;;;;;;;4968291;28;20030;-84
2021/07/16 02:51:13;;;;;;;7.20;2.42;;;;;;;;;;4969085;28;20482;-83
2021/07/16 02:53:58;;;;;;;3.90;2.45;;;;;;;;;;4971514;28;20113;-83
2021/07/16 02:56:43;;;;;;;5.82;2.92;;;;;;;;;;4968622;28;20019;-83
2021/07/16 02:59:29;;;;;;;3.33;2.80;;;;;;;;;;4969867;28;20394;-83
2021/07/16 03:02:14;;;;;;;6.47;2.90;;;;;;;;;;4971394;28;20031;-84
2021/07/16 03:04:59;;;;;;;3.38;2.90;;;;;;;;;;4969842;28;20264;-83
2021/07/16 03:07:45;;;;;;;3.92;2.65;;;;;;;;;;4971421;28;20464;-83
2021/07/16 03:10:40;;;;;;;5.53;2.50;;;;;;;;;;4971351;28;20050;-83
2021/07/16 03:13:25;;;;;;;4.35;3.13;;;;;;;;;;4969700;28;20014;-83
2021/07/16 03:16:11;;;;;;;6.22;2.92;;;;;;;;;;4965557;28;20027;-83
2021/07/16 03:19:00;;;;;;;5.55;2.55;;;;;;;;;;4950364;29;20114;-82
2021/07/16 03:21:45;;;;;;;4.88;2.53;;;;;;;;;;4952095;29;20058;-83
2021/07/16 03:24:30;;;;;;;3.90;2.70;;;;;;;;;;4957859;29;20106;-83
2021/07/16 03:27:15;;;;;;;4.13;3.03;;;;;;;;;;4952824;29;20034;-84
2021/07/16 03:30:01;;;;;;;6.20;3.22;;;;;;;;;;4951439;29;20027;-82
2021/07/16 03:32:46;;;;;;;5.05;2.75;;;;;;;;;;4951834;29;20024;-83
2021/07/16 03:35:32;;;;;;;7.10;3.25;;;;;;;;;;4938095;29;20027;-83
2021/07/16 03:38:17;;;;;;;8.50;3.20;;;;;;;;;;4951558;29;20087;-83
2021/07/16 03:41:02;;;;;;;6.45;3.42;;;;;;;;;;4951911;29;20015;-84
2021/07/16 03:43:47;;;;;;;7.05;3.40;;;;;;;;;;4951208;29;20023;-83
2021/07/16 03:46:33;;;;;;;5.53;3.63;;;;;;;;;;4951980;29;20607;-84
2021/07/16 03:49:18;;;;;;;3.85;3.22;;;;;;;;;;4951658;29;20031;-83
2021/07/16 03:52:03;;;;;;;5.13;2.80;;;;;;;;;;4950994;29;20489;-83
2021/07/16 03:54:51;;;;;;;5.43;2.50;;;;;;;;;;4951643;29;20023;-83
2021/07/16 03:57:41;;;;;;;4.22;2.50;;;;;;;;;;4951047;29;20035;-83
2021/07/16 04:00:29;;;;;;;4.40;2.65;;;;;;;;;;4951524;29;20023;-83
2021/07/16 04:03:16;;;;;;;4.47;2.50;;;;;;;;;;4949939;28;20027;-83
2021/07/16 04:06:01;;;;;;;3.10;2.42;;;;;;;;;;4950980;29;20047;-83
2021/07/16 04:08:46;;;;;;;3.97;2.80;;;;;;;;;;4951145;29;20050;-84
2021/07/16 04:11:31;;;;;;;3.97;2.70;;;;;;;;;;4951642;28;20347;-83
2021/07/16 04:14:16;;;;;;;10.93;2.95;;;;;;;;;;4970362;28;20469;-84
2021/07/16 04:17:03;;;;;;;4.32;2.90;;;;;;;;;;4964360;28;20033;-84
2021/07/16 04:19:49;;;;;;;3.65;3.03;;;;;;;;;;4949256;29;20038;-84
2021/07/16 04:22:34;;;;;;;4.55;3.15;;;;;;;;;;4951206;29;20030;-84
2021/07/16 04:25:19;;;;;;;6.10;3.15;;;;;;;;;;4950285;29;20085;-83
2021/07/16 04:28:05;;;;;;;4.05;2.97;;;;;;;;;;4949242;29;20035;-84
2021/07/16 04:30:50;;;;;;;4.18;3.08;;;;;;;;;;4949221;29;20027;-83
2021/07/16 04:33:35;;;;;;;4.15;2.83;;;;;;;;;;4950543;29;20037;-83
2021/07/16 04:36:20;;;;;;;4.20;2.55;;;;;;;;;;4950458;29;20026;-84
2021/07/16 04:39:05;;;;;;;10.02;3.90;;;;;;;;;;4948888;29;20024;-84
2021/07/16 04:41:51;;;;;;;5.93;3.10;;;;;;;;;;4950419;29;20291;-84
2021/07/16 04:44:36;;;;;;;5.45;3.45;;;;;;;;;;4950344;29;20027;-83
2021/07/16 04:47:21;;;;;;;5.18;3.30;;;;;;;;;;4950692;29;20038;-83
2021/07/16 04:50:07;;;;;;;6.90;3.05;;;;;;;;;;4950222;29;20674;-84
2021/07/16 04:52:52;;;;;;;6.05;3.03;;;;;;;;;;4950717;29;20483;-84
2021/07/16 04:55:37;;;;;;;6.15;3.58;;;;;;;;;;4937319;29;20027;-84
2021/07/16 04:58:22;;;;;;;6.55;3.10;;;;;;;;;;4950126;29;20031;-84
2021/07/16 05:01:08;;;;;;;8.00;3.50;;;;;;;;;;4948974;29;20102;-85
2021/07/16 05:03:54;;;;;;;7.10;3.10;;;;;;;;;;4950085;29;20051;-83
2021/07/16 05:06:39;;;;;;;5.97;3.40;;;;;;;;;;4950345;29;20075;-85
2021/07/16 05:09:24;;;;;;;5.38;3.13;;;;;;;;;;4950344;29;20419;-83
2021/07/16 05:12:09;;;;;;;7.35;3.58;;;;;;;;;;4955447;28;20022;-84
2021/07/16 05:14:55;;;;;;;5.13;3.20;;;;;;;;;;4955577;28;20389;-85
2021/07/16 05:17:40;;;;;;;5.72;3.30;;;;;;;;;;4969498;28;20026;-85
2021/07/16 05:20:25;;;;;;;5.60;3.75;;;;;;;;;;4967462;28;20041;-85
2021/07/16 05:23:10;;;;;;;5.35;3.15;;;;;;;;;;4969508;28;20082;-84
2021/07/16 05:25:56;;;;;;;5.50;4.03;;;;;;;;;;4969421;28;20452;-84
2021/07/16 05:28:41;;;;;;;5.40;3.08;;;;;;;;;;4955804;28;20027;-84
2021/07/16 05:31:26;;;;;;;5.80;3.80;;;;;;;;;;4968265;28;20085;-84
2021/07/16 05:34:11;;;;;;;6.88;3.55;;;;;;;;;;4969010;28;20434;-83
2021/07/16 05:36:57;;;;;;;5.82;3.70;;;;;;;;;;4955325;28;20027;-84
2021/07/16 05:39:42;;;;;;;5.88;3.90;;;;;;;;;;4967483;28;20432;-84
2021/07/16 05:42:27;;;;;;;6.32;3.50;;;;;;;;;;4968968;28;20023;-84
2021/07/16 05:45:12;;;;;;;7.30;4.22;;;;;;;;;;4969029;28;20474;-84
2021/07/16 05:48:00;;;;;;;11.93;5.10;;;;;;;;;;4969352;28;20022;-83
2021/07/16 05:50:46;;;;;;;8.93;6.30;;;;;;;;;;4967130;28;20031;-84
2021/07/16 05:53:31;;;;;;;11.45;9.13;;;;;;;;;;4969324;28;20110;-84
2021/07/16 05:56:16;;;;;;;14.07;9.38;;;;;;;;;;4969150;28;20074;-84
2021/07/16 05:59:02;;;;;;;13.75;10.18;;;;;;;;;;4968330;28;20030;-84
2021/07/16 06:01:47;;;;;;;16.15;10.18;;;;;;;;;;4955687;28;20054;-84
2021/07/16 06:04:32;;;;;;;12.63;9.50;;;;;;;;;;4968791;28;20022;-84
2021/07/16 06:07:17;;;;;;;12.52;9.32;;;;;;;;;;4968694;28;20541;-86
2021/07/16 06:10:03;;;;;;;12.93;9.45;;;;;;;;;;4969518;28;20504;-85
2021/07/16 06:12:48;;;;;;;14.10;11.02;;;;;;;;;;4969011;28;20030;-86
2021/07/16 06:15:34;;;;;;;14.73;9.02;;;;;;;;;;4963320;28;20031;-86
2021/07/16 06:18:19;;;;;;;13.13;10.13;;;;;;;;;;4949970;29;20486;-87
2021/07/16 06:21:06;;;;;;;14.90;9.23;;;;;;;;;;4949608;29;20037;-85
2021/07/16 06:23:52;;;;;;;15.65;9.32;;;;;;;;;;4949841;29;20024;-85
2021/07/16 06:26:37;;;;;;;16.75;10.48;;;;;;;;;;4951101;28;20018;-85
2021/07/16 06:29:22;;;;;;;11.73;9.93;;;;;;;;;;4951687;29;20031;-85
2021/07/16 06:32:08;;;;;;;15.05;9.77;;;;;;;;;;4940391;29;20071;-84
2021/07/16 06:34:53;;;;;;;11.90;9.60;;;;;;;;;;4949705;29;20058;-84
2021/07/16 06:37:38;;;;;;;10.57;8.43;;;;;;;;;;4953225;29;20024;-86
2021/07/16 06:40:24;;;;;;;13.32;9.52;;;;;;;;;;4953447;29;20027;-84
2021/07/16 06:43:10;;;;;;;10.40;8.90;;;;;;;;;;4953179;29;20023;-84
2021/07/16 06:45:55;;;;;;;12.20;10.63;;;;;;;;;;4952911;29;20031;-84
2021/07/16 06:48:43;;;;;;;15.48;10.07;;;;;;;;;;4939868;29;20028;-84
2021/07/16 06:51:30;;;;;;;12.07;10.23;;;;;;;;;;4951139;29;20023;-84
2021/07/16 06:54:15;;;;;;;12.02;8.68;;;;;;;;;;4952985;29;20469;-84
2021/07/16 06:57:00;;;;;;;14.20;8.90;;;;;;;;;;4964172;28;20071;-84
2021/07/16 06:59:46;;;;;;;14.43;8.63;;;;;;;;;;4954269;29;20063;-84
2021/07/16 07:02:31;;;;;;;12.02;8.10;;;;;;;;;;4952769;29;20102;-83
2021/07/16 07:05:16;;;;;;;11.30;8.10;;;;;;;;;;4954346;28;20037;-85
2021/07/16 07:08:02;;;;;;;11.55;7.97;;;;;;;;;;4954007;29;20034;-84
2021/07/16 07:10:47;;;;;;;9.10;7.57;;;;;;;;;;4955245;29;20058;-85
2021/07/16 07:13:33;;;;;;;10.13;7.53;;;;;;;;;;4969627;28;20036;-84
2021/07/16 07:16:18;;;;;;;10.25;7.40;;;;;;;;;;4971758;28;20113;-84
2021/07/16 07:19:03;;;;;;;11.10;8.13;;;;;;;;;;4972140;28;20027;-86
2021/07/16 07:21:49;;;;;;;12.60;7.75;;;;;;;;;;4972289;28;20037;-86
2021/07/16 07:24:34;;;;;;;7.30;6.20;;;;;;;;;;4971896;28;20019;-85
2021/07/16 07:27:20;;;;;;;9.45;7.03;;;;;;;;;;4971574;28;20072;-85
2021/07/16 07:30:06;;;;;;;9.77;6.53;;;;;;;;;;4969844;28;20039;-84
2021/07/16 07:32:51;;;;;;;7.78;6.88;;;;;;;;;;4971688;28;20045;-85
2021/07/16 07:35:36;;;;;;;8.52;6.75;;;;;;;;;;4971211;28;20026;-85
2021/07/16 07:38:22;;;;;;;8.35;6.90;;;;;;;;;;4970956;28;20029;-85
2021/07/16 07:41:07;;;;;;;9.02;6.80;;;;;;;;;;4971483;28;20445;-84
2021/07/16 07:43:53;;;;;;;9.45;6.57;;;;;;;;;;4967667;28;20046;-85
2021/07/16 07:46:38;;;;;;;9.02;6.60;;;;;;;;;;4971808;28;20023;-85
2021/07/16 07:49:24;;;;;;;7.85;6.40;;;;;;;;;;4971355;28;20027;-84
2021/07/16 07:52:09;;;;;;;10.15;6.57;;;;;;;;;;4971027;28;20027;-85
2021/07/16 07:54:55;;;;;;;9.35;6.40;;;;;;;;;;4971207;28;20026;-85
2021/07/16 07:57:40;;;;;;;7.82;5.88;;;;;;;;;;4971001;28;20153;-85
2021/07/16 08:00:26;;;;;;;8.15;6.03;;;;;;;;;;4969225;28;20082;-84
2021/07/16 08:03:11;;;;;;;7.93;5.75;;;;;;;;;;4970739;28;20670;-85
2021/07/16 08:05:56;;;;;;;7.40;5.38;;;;;;;;;;4970225;28;20079;-84
2021/07/16 08:08:42;;;;;;;9.27;5.75;;;;;;;;;;4971011;28;20261;-85
2021/07/16 08:11:29;;;;;;;7.15;4.80;;;;;;;;;;4969334;28;20054;-84
2021/07/16 08:14:14;;;;;;;6.35;4.57;;;;;;;;;;4951406;29;20031;-84
2021/07/16 08:16:59;;;;;;;8.05;5.78;;;;;;;;;;4970881;28;20034;-84
2021/07/16 08:19:44;;;;;;;5.70;4.70;;;;;;;;;;4969324;28;20031;-84
2021/07/16 08:22:30;;;;;;;7.57;4.82;;;;;;;;;;4971892;28;20054;-84
2021/07/16 08:25:15;;;;;;;7.07;4.60;;;;;;;;;;4967618;28;20113;-84
2021/07/16 08:28:01;;;;;;;5.22;4.43;;;;;;;;;;4971154;28;20033;-85
2021/07/16 08:30:46;;;;;;;5.32;4.45;;;;;;;;;;4970721;28;20023;-84
2021/07/16 08:33:31;;;;;;;6.80;4.05;;;;;;;;;;4969077;28;20255;-85
2021/07/16 08:36:16;;;;;;;7.63;5.72;;;;;;;;;;4969853;28;20485;-85
2021/07/16 08:39:04;;;;;;;6.03;4.85;;;;;;;;;;4970210;28;20117;-86
2021/07/16 08:41:50;;;;;;;6.35;4.35;;;;;;;;;;4970190;28;20099;-85
2021/07/16 08:44:36;;;;;;;5.35;3.92;;;;;;;;;;4953181;28;20516;-85
2021/07/16 08:47:21;;;;;;;7.25;4.35;;;;;;;;;;4970603;28;20034;-84
2021/07/16 08:50:08;;;;;;;6.40;5.07;;;;;;;;;;4969439;28;20027;-85
2021/07/16 08:53:00;;;;;;;7.90;5.63;;;;;;;;;;4970192;28;20023;-85
2021/07/16 08:55:45;;;;;;;6.50;4.55;;;;;;;;;;4969903;28;20034;-84
2021/07/16 08:58:32;;;;;;;4.35;3.47;;;;;;;;;;4969850;28;20246;-85
2021/07/16 09:01:17;;;;;;;4.90;4.10;;;;;;;;;;4969964;28;20540;-84
2021/07/16 09:04:03;;;;;;;6.75;3.90;;;;;;;;;;4969440;28;20090;-85
2021/07/16 09:06:50;;;;;;;7.07;4.07;;;;;;;;;;4969761;28;20047;-84
2021/07/16 09:09:37;;;;;;;10.65;4.20;;;;;;;;;;4969308;28;20055;-85
2021/07/16 09:12:22;;;;;;;5.72;4.22;;;;;;;;;;4963792;28;20429;-85
2021/07/16 09:15:08;;;;;;;7.53;3.88;;;;;;;;;;4966767;28;20023;-84
2021/07/16 09:18:12;;;;;;;4.80;3.90;;;;;;;;;;4969224;28;20113;-84
2021/07/16 09:21:03;;;;;;;4.50;3.70;;;;;;;;;;4969691;28;20023;-84
2021/07/16 09:23:49;;;;;;;4.35;3.60;;;;;;;;;;4969871;28;20038;-83
2021/07/16 09:26:38;;;;;;;3.78;3.28;;;;;;;;;;4969358;28;20029;-84
2021/07/16 09:29:28;;;;;;;6.32;3.72;;;;;;;;;;4969827;28;20022;-84
2021/07/16 09:32:13;;;;;;;;;;;;;;;;;;4969869;28;20031;-84
2021/07/16 09:34:58;;;;;;;5.70;3.63;;;;;;;;;;4969655;28;19905;-84
2021/07/16 09:37:52;;;;;;;4.65;3.92;;;;;;;;;;4969267;28;20486;-84
2021/07/16 09:40:39;;;;;;;4.25;3.60;;;;;;;;;;4967731;28;20524;-84
2021/07/16 09:43:26;;;;;;;5.35;4.10;;;;;;;;;;4969672;28;20027;-83
2021/07/16 09:46:11;;;;;;;5.72;3.70;;;;;;;;;;4969560;28;20023;-84
2021/07/16 09:49:10;;;;;;;4.25;3.53;;;;;;;;;;4969437;28;20054;-83
2021/07/16 09:52:05;;;;;;;4.45;3.65;;;;;;;;;;4969942;28;20049;-84
2021/07/16 09:55:08;;;;;;;5.93;4.13;;;;;;;;;;4969645;28;20471;-85
2021/07/16 09:57:55;;;;;;;4.63;3.60;;;;;;;;;;4971292;28;20054;-85
2021/07/16 10:00:40;;;;;;;5.00;3.55;;;;;;;;;;4972208;28;20058;-85
2021/07/16 10:03:25;;;;;;;3.97;3.58;;;;;;;;;;4973097;28;20084;-86
2021/07/16 10:06:12;;;;;;;6.63;3.35;;;;;;;;;;4973292;28;20528;-85
2021/07/16 10:08:57;;;;;;;6.47;3.08;;;;;;;;;;4973101;28;20062;-85
2021/07/16 10:11:53;;;;;;;4.78;3.22;;;;;;;;;;4971605;28;20397;-84
2021/07/16 10:14:38;;;;;;;3.55;2.80;;;;;;;;;;4969402;28;20033;-84
2021/07/16 10:17:23;;;;;;;4.15;2.70;;;;;;;;;;4973208;28;20413;-85
2021/07/16 10:20:10;;;;;;;5.18;2.63;;;;;;;;;;4973029;28;20023;-85
2021/07/16 10:22:55;;;;;;;3.60;2.50;;;;;;;;;;4969810;28;20035;-85
2021/07/16 10:25:40;;;;;;;5.00;2.90;;;;;;;;;;4972946;28;20514;-85
2021/07/16 10:28:29;;;;;;;3.50;3.08;;;;;;;;;;4959566;28;20070;-83
2021/07/16 10:31:33;;;;;;;4.28;2.75;;;;;;;;;;4972852;28;20027;-84
2021/07/16 10:34:18;;;;;;;3.55;2.67;;;;;;;;;;4972438;28;20038;-84
2021/07/16 10:37:05;;;;;;;5.88;2.20;;;;;;;;;;4972910;28;20085;-84
2021/07/16 10:39:52;;;;;;;3.53;2.20;;;;;;;;;;4957306;28;20026;-84
2021/07/16 10:42:39;;;;;;;3.10;2.10;;;;;;;;;;4972639;28;20257;-85
2021/07/16 10:45:32;;;;;;;1.85;1.58;;;;;;;;;;4972492;28;20097;-85
2021/07/16 10:48:18;;;;;;;2.55;1.67;;;;;;;;;;4973175;28;20023;-84
2021/07/16 10:51:04;;;;;;;2.03;1.90;;;;;;;;;;4972266;28;20033;-83
2021/07/16 10:53:49;;;;;;;2.30;1.85;;;;;;;;;;4972628;28;20069;-83
2021/07/16 10:56:39;;;;;;;4.95;2.25;;;;;;;;;;4972676;28;20034;-83
2021/07/16 10:59:48;;;;;;;5.20;1.80;;;;;;;;;;4972199;28;20023;-83
2021/07/16 11:02:33;;;;;;;;;;;;;;;;;;4972577;28;20484;-86
2021/07/16 11:05:31;;;;;;;1.75;1.63;;;;;;;;;;4971867;28;19910;-85
2021/07/16 11:08:39;;;;;;;2.05;1.42;;;;;;;;;;4972017;28;20027;-85
2021/07/16 11:11:39;;;;;;;2.08;1.88;;;;;;;;;;4975836;28;20033;-84
2021/07/16 11:14:25;;;;;;;3.45;2.20;;;;;;;;;;4953534;28;20497;-86
2021/07/16 11:17:23;;;;;;;4.68;2.20;;;;;;;;;;4973394;28;20530;-85
2021/07/16 11:20:11;;;;;;;3.15;2.35;;;;;;;;;;4981119;28;20022;-85
2021/07/16 11:23:01;;;;;;;2.80;1.92;;;;;;;;;;4977851;28;20091;-84
2021/07/16 11:25:47;;;;;;;2.05;1.70;;;;;;;;;;4972191;28;20054;-85
2021/07/16 11:28:32;;;;;;;2.30;1.90;;;;;;;;;;4974332;28;20250;-85
2021/07/16 11:31:18;;;;;;;1.92;1.73;;;;;;;;;;4973450;28;20037;-84
2021/07/16 11:34:05;;;;;;;2.55;1.80;;;;;;;;;;4971331;28;20105;-83
2021/07/16 11:36:51;;;;;;;1.90;1.55;;;;;;;;;;4974332;28;20037;-86
2021/07/16 11:39:39;;;;;;;2.05;1.52;;;;;;;;;;4980557;28;20026;-90
2021/07/16 11:42:24;;;;;;;2.28;1.75;;;;;;;;;;4974123;28;20034;-86
2021/07/16 11:45:11;;;;;;;2.40;1.88;;;;;;;;;;4971642;28;20038;-85
2021/07/16 11:47:57;;;;;;;3.05;1.45;;;;;;;;;;4971693;28;20488;-85
2021/07/16 11:50:46;;;;;;;3.78;1.75;;;;;;;;;;4973015;28;20470;-85
2021/07/16 11:53:31;;;;;;;2.22;1.65;;;;;;;;;;4968672;28;20019;-85
2021/07/16 11:56:16;;;;;;;2.22;1.50;;;;;;;;;;4971561;28;20113;-85
2021/07/16 11:59:02;;;;;;;3.15;1.73;;;;;;;;;;4972838;28;20018;-84
2021/07/16 12:02:03;;;;;;;1.85;1.30;;;;;;;;;;4969669;28;20023;-83
2021/07/16 12:04:49;;;;;;;2.45;1.20;;;;;;;;;;4967417;28;20114;-83
2021/07/16 12:07:36;;;;;;;2.10;1.42;;;;;;;;;;4967725;28;20260;-83
2021/07/16 12:10:21;;;;;;;3.60;1.45;;;;;;;;;;4971055;28;20034;-83
2021/07/16 12:13:06;;;;;;;1.50;1.25;;;;;;;;;;4961222;28;20023;-82
2021/07/16 12:16:02;;;;;;;2.45;1.30;;;;;;;;;;4963428;28;20029;-85
2021/07/16 12:18:48;;;;;;;2.38;1.23;;;;;;;;;;4970719;28;20385;-83
2021/07/16 12:21:35;;;;;;;3.75;1.30;;;;;;;;;;4969218;28;20031;-83
2021/07/16 12:24:20;;;;;;;2.28;1.20;;;;;;;;;;4970514;28;20045;-83
2021/07/16 12:27:10;;;;;;;1.75;1.58;;;;;;;;;;4970114;28;20482;-82
2021/07/16 12:30:00;;;;;;;1.60;1.50;;;;;;;;;;4957235;28;20122;-83
2021/07/16 12:32:45;;;;;;;1.40;1.10;;;;;;;;;;4970201;28;20405;-82
2021/07/16 12:35:31;;;;;;;1.65;1.55;;;;;;;;;;4965597;28;20042;-83
2021/07/16 12:38:18;;;;;;;2.42;1.90;;;;;;;;;;4970303;28;20026;-82
2021/07/16 12:41:08;;;;;;;2.40;1.65;;;;;;;;;;4969920;28;20482;-84
2021/07/16 12:43:53;;;;;;;1.92;1.70;;;;;;;;;;4967744;28;20379;-83
2021/07/16 12:46:39;;;;;;;1.80;1.70;;;;;;;;;;4971071;28;20019;-82
2021/07/16 12:49:24;;;;;;;1.85;1.63;;;;;;;;;;4965860;28;20054;-82
2021/07/16 12:52:10;;;;;;;3.97;1.88;;;;;;;;;;4970322;28;20018;-83
2021/07/16 12:55:11;;;;;;;2.45;1.95;;;;;;;;;;4970580;28;20038;-83
2021/07/16 12:58:03;;;;;;;3.88;2.00;;;;;;;;;;4969959;28;20113;-82
2021/07/16 13:00:55;;;;;;;2.80;1.83;;;;;;;;;;4966265;28;20022;-83
2021/07/16 13:03:41;;;;;;;3.20;1.85;;;;;;;;;;4969317;28;20023;-83
2021/07/16 13:06:29;;;;;;;3.15;1.60;;;;;;;;;;4967867;28;20074;-83
2021/07/16 13:09:18;;;;;;;2.15;1.67;;;;;;;;;;4967345;28;20026;-83
2021/07/16 13:12:04;;;;;;;;;;;;;;;;;;4966702;28;20053;-83
2021/07/16 13:14:53;;;;;;;2.15;1.50;;;;;;;;;;4966350;28;19910;-82
2021/07/16 13:17:38;;;;;;;2.75;1.90;;;;;;;;;;4970030;28;20057;-82
2021/07/16 13:20:24;;;;;;;3.63;1.67;;;;;;;;;;4969947;28;20052;-82
2021/07/16 13:23:09;;;;;;;2.22;1.60;;;;;;;;;;4965082;28;20025;-82
2021/07/16 13:25:57;;;;;;;2.55;1.70;;;;;;;;;;4969610;28;20026;-83
2021/07/16 13:28:45;;;;;;;1.80;1.60;;;;;;;;;;4968719;28;20053;-83
2021/07/16 13:31:30;;;;;;;2.38;1.73;;;;;;;;;;4966895;28;20102;-86
2021/07/16 13:34:16;;;;;;;1.73;1.63;;;;;;;;;;4971216;28;20105;-83
2021/07/16 13:37:01;;;;;;;2.95;1.70;;;;;;;;;;4967255;28;20030;-85
2021/07/16 13:39:47;;;;;;;1.77;1.60;;;;;;;;;;4977700;28;20403;-85
2021/07/16 13:42:32;;;;;;;2.70;1.50;;;;;;;;;;4975584;28;20066;-85
2021/07/16 13:45:17;;;;;;;3.55;1.83;;;;;;;;;;4970763;28;20027;-84
2021/07/16 13:48:02;;;;;;;1.63;1.40;;;;;;;;;;4971917;28;20138;-84
2021/07/16 13:50:47;;;;;;;3.97;1.60;;;;;;;;;;4970296;28;20023;-84
2021/07/16 13:53:33;;;;;;;2.83;1.70;;;;;;;;;;4969991;28;20462;-85
2021/07/16 13:56:18;;;;;;;1.67;1.30;;;;;;;;;;4953392;28;20126;-83
2021/07/16 13:59:03;;;;;;;2.90;1.35;;;;;;;;;;4965240;28;20030;-83
2021/07/16 14:01:49;;;;;;;3.33;1.67;;;;;;;;;;4969463;28;20027;-84
2021/07/16 14:04:34;;;;;;;2.13;1.30;;;;;;;;;;4969313;28;20553;-83
2021/07/16 14:07:19;;;;;;;3.15;1.55;;;;;;;;;;4966838;28;20050;-84
2021/07/16 14:10:05;;;;;;;1.48;1.20;;;;;;;;;;4969003;28;20694;-84
2021/07/16 14:12:50;;;;;;;1.50;1.30;;;;;;;;;;4960057;28;20098;-83
2021/07/16 14:15:35;;;;;;;3.67;1.30;;;;;;;;;;4944683;28;20023;-83
2021/07/16 14:18:20;;;;;;;2.03;1.60;;;;;;;;;;4969244;28;20433;-84
2021/07/16 14:21:06;;;;;;;2.65;1.60;;;;;;;;;;4969179;28;20042;-81
2021/07/16 14:23:51;;;;;;;2.75;1.27;;;;;;;;;;4970541;28;20029;-84
2021/07/16 14:26:36;;;;;;;3.75;1.33;;;;;;;;;;4969676;28;20027;-84
2021/07/16 14:29:21;;;;;;;3.83;1.20;;;;;;;;;;4965750;28;20139;-84
2021/07/16 14:32:07;;;;;;;2.95;1.25;;;;;;;;;;4966495;28;20040;-84
2021/07/16 14:34:52;;;;;;;2.72;1.48;;;;;;;;;;4967214;28;20027;-84
2021/07/16 14:37:37;;;;;;;1.30;1.20;;;;;;;;;;4967058;28;20557;-83
2021/07/16 14:40:23;;;;;;;2.13;1.13;;;;;;;;;;4968695;28;20350;-83
2021/07/16 14:43:08;;;;;;;1.88;1.20;;;;;;;;;;4965483;28;20026;-82
2021/07/16 14:45:53;;;;;;;1.55;1.25;;;;;;;;;;4965991;28;20025;-84
2021/07/16 14:48:38;;;;;;;2.58;1.40;;;;;;;;;;4968876;28;20037;-83
2021/07/16 14:51:23;;;;;;;1.48;1.30;;;;;;;;;;4972855;28;20031;-84
2021/07/16 14:54:09;;;;;;;2.33;1.30;;;;;;;;;;4969063;28;20121;-83
2021/07/16 14:56:54;;;;;;;2.22;1.33;;;;;;;;;;4970208;28;20046;-84
2021/07/16 14:59:39;;;;;;;1.30;1.20;;;;;;;;;;4970934;28;20066;-85
2021/07/16 15:02:24;;;;;;;2.00;1.50;;;;;;;;;;4972017;28;20158;-85
2021/07/16 15:05:10;;;;;;;2.45;1.35;;;;;;;;;;4967045;28;20042;-83
2021/07/16 15:07:55;;;;;;;3.58;1.30;;;;;;;;;;4958310;28;20038;-83
2021/07/16 15:10:40;;;;;;;2.67;1.73;;;;;;;;;;4956749;28;20050;-83
2021/07/16 15:13:25;;;;;;;2.63;1.63;;;;;;;;;;4946919;29;20114;-83
2021/07/16 15:16:11;;;;;;;2.97;1.73;;;;;;;;;;4955001;28;20023;-84
2021/07/16 15:18:56;;;;;;;7.18;2.15;;;;;;;;;;4956943;28;20121;-84
2021/07/16 15:21:41;;;;;;;2.50;1.45;;;;;;;;;;4955306;28;20462;-84
2021/07/16 15:24:28;;;;;;;5.75;1.60;;;;;;;;;;4957833;28;20070;-83
2021/07/16 15:27:13;;;;;;;3.97;1.40;;;;;;;;;;4958328;28;20029;-83
2021/07/16 15:29:58;;;;;;;3.28;1.50;;;;;;;;;;4956597;28;20053;-83
2021/07/16 15:32:44;;;;;;;3.78;1.92;;;;;;;;;;4956042;28;20035;-83
2021/07/16 15:35:29;;;;;;;2.67;1.40;;;;;;;;;;4958232;28;20027;-83
2021/07/16 15:38:15;;;;;;;2.13;1.90;;;;;;;;;;4955806;28;20034;-81
2021/07/16 15:41:00;;;;;;;2.08;1.23;;;;;;;;;;4957061;28;20109;-82
2021/07/16 15:43:47;;;;;;;3.47;1.50;;;;;;;;;;4954242;28;20125;-82
2021/07/16 15:46:32;;;;;;;3.30;1.60;;;;;;;;;;4956251;28;20039;-82
2021/07/16 15:49:18;;;;;;;1.58;1.30;;;;;;;;;;4955839;28;20101;-82
2021/07/16 15:52:04;;;;;;;1.80;1.50;;;;;;;;;;4957529;28;20038;-82
2021/07/16 15:54:49;;;;;;;3.42;1.73;;;;;;;;;;4953712;28;20436;-82
2021/07/16 15:57:35;;;;;;;2.35;1.40;;;;;;;;;;4957457;28;20062;-82
2021/07/16 16:00:20;;;;;;;1.77;1.55;;;;;;;;;;4954388;28;20462;-83
2021/07/16 16:03:06;;;;;;;2.00;1.73;;;;;;;;;;4956130;28;20034;-83
2021/07/16 16:05:51;;;;;;;3.08;1.77;;;;;;;;;;4954644;28;20058;-84
2021/07/16 16:08:37;;;;;;;3.47;1.88;;;;;;;;;;4969237;28;20031;-83
2021/07/16 16:11:22;;;;;;;3.97;1.98;;;;;;;;;;4970976;28;20023;-84
2021/07/16 16:14:07;;;;;;;2.47;1.70;;;;;;;;;;4950641;29;20046;-81
2021/07/16 16:16:52;;;;;;;1.90;1.75;;;;;;;;;;4950473;29;20078;-81
2021/07/16 16:19:37;;;;;;;1.90;1.70;;;;;;;;;;4950771;29;20028;-83
2021/07/16 16:22:24;;;;;;;2.45;1.38;;;;;;;;;;4951018;29;20517;-83
2021/07/16 16:25:11;;;;;;;2.03;1.80;;;;;;;;;;4945638;29;20030;-83
2021/07/16 16:27:56;;;;;;;3.83;1.75;;;;;;;;;;4953010;29;20114;-83
2021/07/16 16:30:41;;;;;;;3.10;1.80;;;;;;;;;;4934766;29;20476;-83
2021/07/16 16:33:27;;;;;;;1.75;1.65;;;;;;;;;;4949409;29;20090;-83
2021/07/16 16:36:12;;;;;;;2.47;1.67;;;;;;;;;;4947773;29;20027;-81